TimePDT,TemperatureF,Dew PointF,Humidity,Sea Level PressureIn,VisibilityMPH,Wind Direction,Wind SpeedMPH,Gust SpeedMPH,PrecipitationIn,Events,Conditions,WindDirDegrees,DateUTC
12:56 AM,52.0,34.0,50,29.91,10.0,WNW,5.8,-,N/A,,Clear,290,2013-04-13 07:56:00
1:56 AM,50.0,35.1,57,29.90,10.0,WNW,5.8,-,N/A,,Clear,300,2013-04-13 08:56:00
2:56 AM,46.9,35.1,63,29.89,10.0,West,3.5,-,N/A,,Clear,280,2013-04-13 09:56:00
3:56 AM,48.0,36.0,63,29.87,10.0,Calm,Calm,-,N/A,,Clear,0,2013-04-13 10:56:00
4:56 AM,46.9,37.0,68,29.88,10.0,Variable,5.8,16.1,N/A,,Clear,0,2013-04-13 11:56:00
5:56 AM,45.0,36.0,71,29.88,10.0,Variable,6.9,-,N/A,,Clear,0,2013-04-13 12:56:00
6:56 AM,45.0,34.0,65,29.91,10.0,Variable,6.9,-,N/A,,Clear,0,2013-04-13 13:56:00
7:56 AM,46.9,33.1,59,29.92,10.0,NW,10.4,20.7,N/A,,Clear,320,2013-04-13 14:56:00
8:56 AM,48.9,24.1,38,29.94,10.0,NNW,9.2,20.7,N/A,,Clear,330,2013-04-13 15:56:00
9:56 AM,50.0,24.1,36,29.94,10.0,Variable,6.9,20.7,N/A,,Clear,0,2013-04-13 16:56:00
10:56 AM,53.1,18.0,25,29.93,10.0,Variable,6.9,23.0,N/A,,Clear,0,2013-04-13 17:56:00
11:56 AM,55.9,19.0,24,29.93,10.0,NW,9.2,24.2,N/A,,Clear,320,2013-04-13 18:56:00
12:56 PM,57.0,18.0,22,29.91,10.0,North,9.2,18.4,N/A,,Clear,360,2013-04-13 19:56:00
1:56 PM,59.0,19.9,22,29.89,10.0,Variable,5.8,-,N/A,,Clear,0,2013-04-13 20:56:00
2:56 PM,59.0,21.0,23,29.92,10.0,NNW,8.1,18.4,N/A,,Clear,330,2013-04-13 21:56:00
3:56 PM,57.9,21.0,24,29.92,10.0,NNW,10.4,21.9,N/A,,Clear,340,2013-04-13 22:56:00
4:56 PM,55.0,21.0,27,29.93,10.0,NW,10.4,18.4,N/A,,Clear,320,2013-04-13 23:56:00
5:56 PM,53.1,21.9,30,29.94,10.0,NNW,8.1,19.6,N/A,,Clear,340,2013-04-14 00:56:00
6:56 PM,50.0,23.0,35,29.95,10.0,Variable,6.9,-,N/A,,Clear,0,2013-04-14 01:56:00
7:56 PM,46.0,24.1,42,29.97,10.0,Variable,5.8,-,N/A,,Clear,0,2013-04-14 02:56:00
8:56 PM,43.0,25.0,49,30.00,10.0,Variable,4.6,-,N/A,,Clear,0,2013-04-14 03:56:00
9:56 PM,39.9,25.0,55,30.03,10.0,WNW,5.8,-,N/A,,Clear,290,2013-04-14 04:56:00
10:56 PM,39.0,26.1,60,30.03,10.0,Variable,3.5,-,N/A,,Clear,0,2013-04-14 05:56:00
11:56 PM,37.0,25.0,62,30.03,10.0,Variable,6.9,-,N/A,,Clear,0,2013-04-14 06:56:00